Time;durP1;ratioP1;P1;durP2;ratioP2;P2;SDS_P1;SDS_P2;PMS_P1;PMS_P2;Temp;Humidity;BMP_temperature;BMP_pressure;BME280_temperature;BME280_humidity;BME280_pressure;Samples;Min_cycle;Max_cycle;Signal;HPM_P1;HPM_P2
2024/03/31 00:01:10;;;;;;;;;;;18.40;72.90;;;;;;5044373;27;87066;-48
2024/03/31 00:03:35;;;;;;;;;;;18.40;72.80;;;;;;5042155;28;87979;-56
2024/03/31 00:06:01;;;;;;;;;;;18.40;72.90;;;;;;5044800;27;88415;-48
2024/03/31 00:08:27;;;;;;;;;;;18.40;72.90;;;;;;5045371;28;87042;-47
2024/03/31 00:11:11;;;;;;;;;;;18.40;72.90;;;;;;5047358;27;86905;-48
2024/03/31 00:13:37;;;;;;;;;;;18.40;73.00;;;;;;5044694;28;86976;-49
2024/03/31 00:16:02;;;;;;;;;;;18.40;73.00;;;;;;5042838;28;87000;-49
2024/03/31 00:18:28;;;;;;;;;;;18.40;73.00;;;;;;5043765;27;89288;-49
2024/03/31 00:20:58;;;;;;;;;;;18.30;73.00;;;;;;5044151;28;88080;-48
2024/03/31 00:23:24;;;;;;;;;;;18.30;72.90;;;;;;5045124;27;88951;-48
2024/03/31 00:25:59;;;;;;;;;;;18.30;73.10;;;;;;5044819;27;88531;-48
2024/03/31 00:28:25;;;;;;;;;;;18.30;72.90;;;;;;5042859;28;87023;-50
2024/03/31 00:30:54;;;;;;;;;;;18.30;73.00;;;;;;5041162;28;86989;-48
2024/03/31 00:33:20;;;;;;;;;;;18.30;73.00;;;;;;5044141;27;88417;-49
2024/03/31 00:35:55;;;;;;;;;;;18.30;73.00;;;;;;5044771;28;86997;-49
2024/03/31 00:38:21;;;;;;;;;;;18.30;73.00;;;;;;5043218;28;86875;-48
2024/03/31 00:40:46;;;;;;;;;;;18.30;73.00;;;;;;5043815;27;87017;-49
2024/03/31 00:43:13;;;;;;;;;;;18.20;73.00;;;;;;5044050;27;87822;-48
2024/03/31 00:45:39;;;;;;;;;;;18.20;73.00;;;;;;5040679;27;87137;-47
2024/03/31 00:48:04;;;;;;;;;;;18.20;73.10;;;;;;5041571;27;87111;-48
2024/03/31 00:50:30;;;;;;;;;;;18.20;73.00;;;;;;5043094;27;86994;-49
2024/03/31 00:52:57;;;;;;;;;;;18.20;73.10;;;;;;5042848;28;87886;-49
2024/03/31 00:55:23;;;;;;;;;;;18.20;73.10;;;;;;5047208;27;87038;-49
2024/03/31 00:57:49;;;;;;;;;;;18.20;73.00;;;;;;5043440;28;88037;-48
2024/03/31 01:00:16;;;;;;;;;;;18.20;73.00;;;;;;5043166;28;86310;-48
2024/03/31 01:02:42;;;;;;;;;;;18.20;73.20;;;;;;5041758;27;87301;-49
2024/03/31 01:05:07;;;;;;;;;;;18.20;73.10;;;;;;5042137;28;87748;-49
2024/03/31 01:07:33;;;;;;;;;;;18.20;73.00;;;;;;5042355;28;87941;-48
2024/03/31 01:09:59;;;;;;;;;;;18.20;73.10;;;;;;5056748;27;90353;-48
2024/03/31 01:12:24;;;;;;;;;;;18.10;73.10;;;;;;5043294;27;87655;-49
2024/03/31 01:14:50;;;;;;;;;;;18.10;73.10;;;;;;5043009;28;86954;-48
2024/03/31 01:17:15;;;;;;;;;;;18.10;73.20;;;;;;5043897;27;87042;-48
2024/03/31 01:19:41;;;;;;;;;;;18.10;73.10;;;;;;5044188;28;87034;-48
2024/03/31 01:22:07;;;;;;;;;;;18.10;73.10;;;;;;5040562;27;87630;-48
2024/03/31 01:24:32;;;;;;;;;;;18.10;73.20;;;;;;5043566;28;86875;-50
2024/03/31 01:26:58;;;;;;;;;;;18.10;73.20;;;;;;5042481;28;87002;-48
2024/03/31 01:29:23;;;;;;;;;;;18.00;73.20;;;;;;5044608;27;87070;-48
2024/03/31 01:31:49;;;;;;;;;;;18.00;73.20;;;;;;5038294;28;89409;-49
2024/03/31 01:34:15;;;;;;;;;;;18.00;73.10;;;;;;5043055;27;87065;-48
2024/03/31 01:36:41;;;;;;;;;;;18.00;73.20;;;;;;5043350;27;87133;-48
2024/03/31 01:39:07;;;;;;;;;;;18.00;73.20;;;;;;5045836;27;88645;-50
2024/03/31 01:41:32;;;;;;;;;;;18.00;73.10;;;;;;5042899;27;87044;-49
2024/03/31 01:43:58;;;;;;;;;;;18.00;73.20;;;;;;5042834;27;87668;-49
2024/03/31 01:46:23;;;;;;;;;;;18.00;73.20;;;;;;5041001;28;87225;-49
2024/03/31 01:48:49;;;;;;;;;;;18.00;73.20;;;;;;5044583;28;86952;-48
2024/03/31 01:51:14;;;;;;;;;;;17.90;73.30;;;;;;5043304;28;87802;-49
2024/03/31 01:53:40;;;;;;;;;;;17.90;73.20;;;;;;5040720;28;87216;-48
2024/03/31 01:56:06;;;;;;;;;;;17.90;73.30;;;;;;5042317;27;87942;-50
2024/03/31 01:58:31;;;;;;;;;;;17.90;73.20;;;;;;5046511;27;88212;-49
2024/03/31 02:00:57;;;;;;;;;;;17.90;73.30;;;;;;5044452;27;87339;-49
2024/03/31 02:03:22;;;;;;;;;;;17.90;73.30;;;;;;5046005;28;87701;-50
2024/03/31 02:05:48;;;;;;;;;;;17.90;73.30;;;;;;5035267;27;87043;-50
2024/03/31 02:08:13;;;;;;;;;;;17.90;73.20;;;;;;5046795;28;87482;-48
2024/03/31 02:10:39;;;;;;;;;;;17.90;73.30;;;;;;5041824;28;87671;-49
2024/03/31 02:13:05;;;;;;;;;;;17.90;73.40;;;;;;5041826;28;87224;-49
2024/03/31 02:15:30;;;;;;;;;;;17.80;73.30;;;;;;5045935;27;87082;-49
2024/03/31 02:17:56;;;;;;;;;;;17.80;73.30;;;;;;5044718;28;87408;-48
2024/03/31 02:20:21;;;;;;;;;;;17.80;73.30;;;;;;5049864;28;88162;-48
2024/03/31 02:22:47;;;;;;;;;;;17.80;73.30;;;;;;5045168;27;87558;-49
2024/03/31 02:25:12;;;;;;;;;;;17.80;73.30;;;;;;5047017;28;87054;-49
2024/03/31 02:27:38;;;;;;;;;;;17.80;73.40;;;;;;5046577;27;86947;-49
2024/03/31 02:30:03;;;;;;;;;;;17.80;73.40;;;;;;5046321;27;88507;-51
2024/03/31 02:32:29;;;;;;;;;;;17.80;73.40;;;;;;5045957;28;87164;-49
2024/03/31 02:34:55;;;;;;;;;;;17.80;73.40;;;;;;5042156;28;87505;-48
2024/03/31 02:37:20;;;;;;;;;;;17.80;73.50;;;;;;5046523;27;87522;-49
2024/03/31 02:39:46;;;;;;;;;;;17.80;73.50;;;;;;5046578;27;87003;-48
2024/03/31 02:42:11;;;;;;;;;;;17.80;73.40;;;;;;5049553;27;87758;-48
2024/03/31 02:44:37;;;;;;;;;;;17.70;73.40;;;;;;5046160;28;87977;-50
2024/03/31 02:47:03;;;;;;;;;;;17.70;73.50;;;;;;5044359;28;88125;-49
2024/03/31 02:49:28;;;;;;;;;;;17.70;73.50;;;;;;5045825;27;87487;-49
2024/03/31 02:51:54;;;;;;;;;;;17.70;73.40;;;;;;5044773;27;86964;-49
2024/03/31 02:54:19;;;;;;;;;;;17.70;73.40;;;;;;5044187;28;87047;-49
2024/03/31 02:56:45;;;;;;;;;;;17.70;73.40;;;;;;5046321;28;87550;-49
2024/03/31 02:59:10;;;;;;;;;;;17.70;73.50;;;;;;5046441;28;87399;-50
2024/03/31 03:01:36;;;;;;;;;;;17.70;73.60;;;;;;5045843;28;87014;-50
2024/03/31 03:04:01;;;;;;;;;;;17.60;73.50;;;;;;5044753;28;87556;-51
2024/03/31 03:06:27;;;;;;;;;;;17.70;73.50;;;;;;5045451;28;86993;-49
2024/03/31 03:08:52;;;;;;;;;;;17.60;73.40;;;;;;5043902;28;88639;-48
2024/03/31 03:11:18;;;;;;;;;;;17.60;73.50;;;;;;5044721;27;87043;-50
2024/03/31 03:13:44;;;;;;;;;;;17.60;73.50;;;;;;5045559;27;87709;-48
2024/03/31 03:16:10;;;;;;;;;;;17.60;73.50;;;;;;5045578;27;88947;-49
2024/03/31 03:18:35;;;;;;;;;;;17.60;73.50;;;;;;5042236;27;87361;-49
2024/03/31 03:21:01;;;;;;;;;;;17.60;73.60;;;;;;5046368;28;86952;-49
2024/03/31 03:23:27;;;;;;;;;;;17.60;73.50;;;;;;5045953;27;87674;-49
2024/03/31 03:25:55;;;;;;;;;;;17.50;73.50;;;;;;5050055;28;86153;-49
2024/03/31 03:28:21;;;;;;;;;;;17.50;73.50;;;;;;5043184;28;87425;-49
2024/03/31 03:30:47;;;;;;;;;;;17.50;73.50;;;;;;5046244;27;87010;-49
2024/03/31 03:33:13;;;;;;;;;;;17.50;73.50;;;;;;5044578;27;88002;-50
2024/03/31 03:35:39;;;;;;;;;;;17.50;73.60;;;;;;5045919;28;87347;-50
2024/03/31 03:38:04;;;;;;;;;;;17.50;73.50;;;;;;5045369;27;87231;-49
2024/03/31 03:40:30;;;;;;;;;;;17.50;73.50;;;;;;5045076;28;87285;-48
2024/03/31 03:42:55;;;;;;;;;;;17.50;73.50;;;;;;5044134;28;87924;-48
2024/03/31 03:45:21;;;;;;;;;;;17.50;73.60;;;;;;5043338;28;87581;-49
2024/03/31 03:47:46;;;;;;;;;;;17.50;73.60;;;;;;5047101;28;86967;-49
2024/03/31 03:50:12;;;;;;;;;;;17.40;73.50;;;;;;5041974;27;86278;-49
2024/03/31 03:52:38;;;;;;;;;;;17.40;73.50;;;;;;5044725;27;87063;-48
2024/03/31 03:55:03;;;;;;;;;;;17.40;73.60;;;;;;5043970;27;88639;-49
2024/03/31 03:57:29;;;;;;;;;;;17.40;73.60;;;;;;5044676;27;88279;-48
2024/03/31 03:59:54;;;;;;;;;;;17.40;73.60;;;;;;5045656;28;87758;-49
2024/03/31 04:02:20;;;;;;;;;;;17.40;73.60;;;;;;5045079;28;88029;-50
2024/03/31 04:04:45;;;;;;;;;;;17.40;73.70;;;;;;5041711;27;87775;-47
2024/03/31 04:07:11;;;;;;;;;;;17.40;73.60;;;;;;5046206;28;87048;-48
2024/03/31 04:09:37;;;;;;;;;;;17.40;73.70;;;;;;5044021;28;87150;-48
2024/03/31 04:12:02;;;;;;;;;;;17.40;73.70;;;;;;5045467;28;86908;-49
2024/03/31 04:14:28;;;;;;;;;;;17.30;73.70;;;;;;5045376;27;86839;-48
2024/03/31 04:16:53;;;;;;;;;;;17.30;73.70;;;;;;5042261;28;87389;-48
2024/03/31 04:19:19;;;;;;;;;;;17.30;73.70;;;;;;5042461;28;86912;-48
2024/03/31 04:21:44;;;;;;;;;;;17.30;73.60;;;;;;5044243;28;88376;-47
2024/03/31 04:24:10;;;;;;;;;;;17.30;73.70;;;;;;5045428;28;87608;-49
2024/03/31 04:26:35;;;;;;;;;;;17.30;73.80;;;;;;5041974;28;87426;-48
2024/03/31 04:29:01;;;;;;;;;;;17.30;73.60;;;;;;5046160;27;87813;-50
2024/03/31 04:31:26;;;;;;;;;;;17.30;73.80;;;;;;5042479;27;86934;-47
2024/03/31 04:33:52;;;;;;;;;;;17.30;73.70;;;;;;5040077;28;87489;-49
2024/03/31 04:36:18;;;;;;;;;;;17.30;73.70;;;;;;5045593;28;87136;-48
2024/03/31 04:38:43;;;;;;;;;;;17.20;73.50;;;;;;5044966;27;88026;-49
2024/03/31 04:41:09;;;;;;;;;;;17.30;73.70;;;;;;5043813;27;88836;-49
2024/03/31 04:43:34;;;;;;;;;;;17.30;73.60;;;;;;5043554;27;87667;-49
2024/03/31 04:46:03;;;;;;;;;;;17.30;73.60;;;;;;5044647;28;87834;-48
2024/03/31 04:48:28;;;;;;;;;;;17.30;73.60;;;;;;5043847;27;88771;-48
2024/03/31 04:50:54;;;;;;;;;;;17.30;73.60;;;;;;5046676;27;86947;-48
2024/03/31 04:53:20;;;;;;;;;;;17.20;73.70;;;;;;5044718;28;87466;-49
2024/03/31 04:55:45;;;;;;;;;;;17.20;73.60;;;;;;5041903;27;87449;-49
2024/03/31 04:58:11;;;;;;;;;;;17.20;73.80;;;;;;5044258;28;87591;-49
2024/03/31 05:00:36;;;;;;;;;;;17.20;74.30;;;;;;5044623;28;87530;-47
2024/03/31 05:03:03;;;;;;;;;;;17.20;73.70;;;;;;5044182;28;86225;-48
2024/03/31 05:05:28;;;;;;;;;;;17.20;73.70;;;;;;5042028;27;87147;-50
2024/03/31 05:07:54;;;;;;;;;;;17.20;73.60;;;;;;5042487;28;88655;-48
2024/03/31 05:10:19;;;;;;;;;;;17.20;73.70;;;;;;5041312;28;88106;-49
2024/03/31 05:12:45;;;;;;;;;;;17.20;73.80;;;;;;5045509;27;89327;-49
2024/03/31 05:15:10;;;;;;;;;;;17.20;73.70;;;;;;5044500;27;87105;-49
2024/03/31 05:17:36;;;;;;;;;;;17.20;73.70;;;;;;5043204;28;87127;-48
2024/03/31 05:20:02;;;;;;;;;;;17.20;73.70;;;;;;5042385;28;87459;-48
2024/03/31 05:22:27;;;;;;;;;;;17.20;73.60;;;;;;5042651;27;86921;-47
2024/03/31 05:24:53;;;;;;;;;;;17.10;73.70;;;;;;5042545;28;87355;-48
2024/03/31 05:27:18;;;;;;;;;;;17.20;73.70;;;;;;5042951;27;87900;-49
2024/03/31 05:29:44;;;;;;;;;;;17.20;73.70;;;;;;5044076;28;86981;-47
2024/03/31 05:32:09;;;;;;;;;;;17.10;73.70;;;;;;5042564;28;86869;-48
2024/03/31 05:34:37;;;;;;;;;;;17.10;73.70;;;;;;5042603;28;89623;-48
2024/03/31 05:37:02;;;;;;;;;;;17.10;73.80;;;;;;5045963;27;88862;-49
2024/03/31 05:39:28;;;;;;;;;;;17.10;73.70;;;;;;5045824;28;87250;-48
2024/03/31 05:41:53;;;;;;;;;;;17.10;73.70;;;;;;5048439;28;86981;-48
2024/03/31 05:44:19;;;;;;;;;;;17.10;73.80;;;;;;5047325;27;87063;-48
2024/03/31 05:46:46;;;;;;;;;;;17.10;73.80;;;;;;5046922;28;88109;-49
2024/03/31 05:49:11;;;;;;;;;;;17.10;73.70;;;;;;5044457;27;88419;-48
2024/03/31 05:51:37;;;;;;;;;;;17.10;73.80;;;;;;5048448;28;86703;-48
2024/03/31 05:54:02;;;;;;;;;;;17.10;73.80;;;;;;5045728;27;87684;-48
2024/03/31 05:56:28;;;;;;;;;;;17.10;73.80;;;;;;5044960;27;88456;-47
2024/03/31 05:58:53;;;;;;;;;;;17.10;73.90;;;;;;5046982;27;88337;-48
2024/03/31 06:01:19;;;;;;;;;;;17.10;73.90;;;;;;5043364;28;87105;-47
2024/03/31 06:03:45;;;;;;;;;;;17.10;73.90;;;;;;5047541;27;86920;-48
2024/03/31 06:06:10;;;;;;;;;;;17.00;73.80;;;;;;5046487;27;88712;-49
2024/03/31 06:08:36;;;;;;;;;;;17.10;73.90;;;;;;5044390;27;86984;-48
2024/03/31 06:11:01;;;;;;;;;;;17.10;73.80;;;;;;5045081;28;87042;-49
2024/03/31 06:13:27;;;;;;;;;;;17.00;73.80;;;;;;5046886;27;87568;-48
2024/03/31 06:15:52;;;;;;;;;;;17.00;73.90;;;;;;5049354;27;87075;-49
2024/03/31 06:18:18;;;;;;;;;;;17.00;73.90;;;;;;5042760;27;88565;-49
2024/03/31 06:20:44;;;;;;;;;;;17.10;74.00;;;;;;5044300;28;87674;-48
2024/03/31 06:23:09;;;;;;;;;;;17.00;73.90;;;;;;5046304;28;88156;-49
2024/03/31 06:25:35;;;;;;;;;;;17.00;74.00;;;;;;5046793;27;87343;-48
2024/03/31 06:28:00;;;;;;;;;;;17.00;74.00;;;;;;5047319;28;87657;-49
2024/03/31 06:30:26;;;;;;;;;;;17.00;73.90;;;;;;5044928;28;87703;-48
2024/03/31 06:32:51;;;;;;;;;;;17.00;73.80;;;;;;5044182;28;88415;-49
2024/03/31 06:35:17;;;;;;;;;;;17.00;73.90;;;;;;5046075;28;86913;-49
2024/03/31 06:37:42;;;;;;;;;;;17.00;73.90;;;;;;5048605;28;87087;-48
2024/03/31 06:40:08;;;;;;;;;;;17.00;73.90;;;;;;5047567;27;86266;-48
2024/03/31 06:42:34;;;;;;;;;;;17.10;74.00;;;;;;5045695;28;87155;-50
2024/03/31 06:44:59;;;;;;;;;;;17.00;73.80;;;;;;5045647;28;87464;-48
2024/03/31 06:47:25;;;;;;;;;;;17.00;73.90;;;;;;5044312;27;87971;-48
2024/03/31 06:49:50;;;;;;;;;;;17.00;73.80;;;;;;5044799;28;87803;-48
2024/03/31 06:52:16;;;;;;;;;;;17.00;74.00;;;;;;5046684;28;87657;-48
2024/03/31 06:54:41;;;;;;;;;;;17.00;73.90;;;;;;5046133;27;87634;-49
2024/03/31 06:57:07;;;;;;;;;;;17.10;74.00;;;;;;5044690;28;86957;-49
2024/03/31 06:59:32;;;;;;;;;;;17.10;74.00;;;;;;5049164;27;87626;-48
2024/03/31 07:01:58;;;;;;;;;;;17.00;73.90;;;;;;5046658;28;87075;-49
2024/03/31 07:04:23;;;;;;;;;;;17.10;74.00;;;;;;5041237;28;87057;-49
2024/03/31 07:06:49;;;;;;;;;;;17.10;74.00;;;;;;5043399;28;87084;-48
2024/03/31 07:09:16;;;;;;;;;;;17.10;74.00;;;;;;5037342;27;88109;-48
2024/03/31 07:11:41;;;;;;;;;;;17.00;74.00;;;;;;5040864;28;89619;-49
2024/03/31 07:14:07;;;;;;;;;;;17.00;74.00;;;;;;5046764;27;86983;-52
2024/03/31 07:16:32;;;;;;;;;;;17.00;74.00;;;;;;5046623;28;86941;-48
2024/03/31 07:18:58;;;;;;;;;;;17.00;74.00;;;;;;5036508;27;88511;-49
2024/03/31 07:21:23;;;;;;;;;;;17.00;74.00;;;;;;5048415;28;87018;-49
2024/03/31 07:23:49;;;;;;;;;;;17.00;74.00;;;;;;5045574;28;87537;-49
2024/03/31 07:26:15;;;;;;;;;;;17.10;74.10;;;;;;5046370;27;86938;-50
2024/03/31 07:28:40;;;;;;;;;;;17.00;74.10;;;;;;5047243;27;87175;-49
2024/03/31 07:31:06;;;;;;;;;;;17.00;74.00;;;;;;5045778;27;88372;-49
2024/03/31 07:33:31;;;;;;;;;;;17.00;74.10;;;;;;5044701;28;88195;-48
2024/03/31 07:35:58;;;;;;;;;;;17.00;74.10;;;;;;5040579;28;88157;-50
2024/03/31 07:38:24;;;;;;;;;;;17.00;74.20;;;;;;5045183;28;87679;-51
2024/03/31 07:40:49;;;;;;;;;;;17.10;74.20;;;;;;5045611;28;87039;-48
2024/03/31 07:43:20;;;;;;;;;;;17.10;74.20;;;;;;5049198;28;87082;-49
2024/03/31 07:45:45;;;;;;;;;;;17.10;74.20;;;;;;5046282;27;86905;-49
2024/03/31 07:48:11;;;;;;;;;;;17.10;74.20;;;;;;5045996;28;86837;-49
2024/03/31 07:50:37;;;;;;;;;;;17.10;74.20;;;;;;5045435;27;88462;-48
2024/03/31 07:53:02;;;;;;;;;;;17.10;74.20;;;;;;5045961;28;87157;-49
2024/03/31 07:55:28;;;;;;;;;;;17.10;74.10;;;;;;5045960;27;86889;-49
2024/03/31 07:57:53;;;;;;;;;;;17.10;74.10;;;;;;5043109;27;87606;-49
2024/03/31 08:00:19;;;;;;;;;;;17.10;74.20;;;;;;5043823;28;87902;-50
2024/03/31 08:02:44;;;;;;;;;;;17.10;74.10;;;;;;5046765;27;88243;-48
2024/03/31 08:05:10;;;;;;;;;;;17.10;74.10;;;;;;5041112;28;87102;-49
2024/03/31 08:07:35;;;;;;;;;;;17.10;74.20;;;;;;5042895;28;87205;-48
2024/03/31 08:10:03;;;;;;;;;;;17.10;74.10;;;;;;5044917;27;88559;-49
2024/03/31 08:12:28;;;;;;;;;;;17.20;74.20;;;;;;5045822;27;87016;-50
2024/03/31 08:14:54;;;;;;;;;;;17.20;74.20;;;;;;5045199;27;87740;-50
2024/03/31 08:17:19;;;;;;;;;;;17.10;74.20;;;;;;5045870;28;86959;-48
2024/03/31 08:19:45;;;;;;;;;;;17.20;74.10;;;;;;5045742;28;87108;-50
2024/03/31 08:22:10;;;;;;;;;;;17.10;74.10;;;;;;5043947;27;87624;-49
2024/03/31 08:24:36;;;;;;;;;;;17.20;74.10;;;;;;5044901;27;88556;-49
2024/03/31 08:27:02;;;;;;;;;;;17.20;74.10;;;;;;5045135;28;88527;-50
2024/03/31 08:29:27;;;;;;;;;;;17.20;74.10;;;;;;5045116;27;88587;-48
2024/03/31 08:31:53;;;;;;;;;;;17.20;74.10;;;;;;5044355;28;87058;-50
2024/03/31 08:34:18;;;;;;;;;;;17.20;73.80;;;;;;5045215;27;87949;-50
2024/03/31 08:36:44;;;;;;;;;;;17.20;73.80;;;;;;5043401;28;87642;-50
2024/03/31 08:39:09;;;;;;;;;;;17.20;74.60;;;;;;5045396;28;87003;-48
2024/03/31 08:41:40;;;;;;;;;;;17.20;73.90;;;;;;5046182;27;86402;-49
2024/03/31 08:44:06;;;;;;;;;;;17.20;73.90;;;;;;5042737;28;87907;-49
2024/03/31 08:46:32;;;;;;;;;;;17.20;74.10;;;;;;5047496;27;87657;-49
2024/03/31 08:48:58;;;;;;;;;;;17.20;73.90;;;;;;5042719;27;88581;-50
2024/03/31 08:51:23;;;;;;;;;;;17.20;74.00;;;;;;5042687;27;86780;-49
2024/03/31 08:53:50;;;;;;;;;;;17.20;74.10;;;;;;5042804;28;87783;-50
2024/03/31 08:56:15;;;;;;;;;;;17.20;74.10;;;;;;5042937;27;87593;-49
2024/03/31 08:58:42;;;;;;;;;;;17.30;74.20;;;;;;5042063;27;87784;-51
2024/03/31 09:01:10;;;;;;;;;;;17.30;74.10;;;;;;5044791;27;87149;-49
2024/03/31 09:03:36;;;;;;;;;;;17.30;74.10;;;;;;5044693;28;87748;-49
2024/03/31 09:06:01;;;;;;;;;;;17.30;74.20;;;;;;5044763;28;86281;-50
2024/03/31 09:08:27;;;;;;;;;;;17.20;74.20;;;;;;5046115;27;87735;-48
2024/03/31 09:10:52;;;;;;;;;;;17.30;74.30;;;;;;5044366;27;87548;-48
2024/03/31 09:13:18;;;;;;;;;;;17.30;74.30;;;;;;5043079;27;87837;-50
2024/03/31 09:15:44;;;;;;;;;;;17.30;74.50;;;;;;5043200;28;87363;-49
2024/03/31 09:18:09;;;;;;;;;;;17.30;74.50;;;;;;5043899;27;86974;-49
2024/03/31 09:20:35;;;;;;;;;;;17.30;74.50;;;;;;5044840;27;88292;-48
2024/03/31 09:23:01;;;;;;;;;;;17.30;74.50;;;;;;5043990;27;87629;-49
2024/03/31 09:25:26;;;;;;;;;;;17.30;74.50;;;;;;5045158;27;86981;-48
2024/03/31 09:27:56;;;;;;;;;;;17.30;74.60;;;;;;5044777;27;87041;-49
2024/03/31 09:30:25;;;;;;;;;;;17.40;74.60;;;;;;5047980;28;87918;-50
2024/03/31 09:32:51;;;;;;;;;;;17.40;74.50;;;;;;5041018;27;87302;-49
2024/03/31 09:35:36;;;;;;;;;;;17.30;74.60;;;;;;5044022;27;88462;-49
2024/03/31 09:38:01;;;;;;;;;;;17.40;74.70;;;;;;5040397;28;88567;-50
2024/03/31 09:40:27;;;;;;;;;;;17.40;74.70;;;;;;5043140;28;88053;-49
2024/03/31 09:42:52;;;;;;;;;;;17.40;74.80;;;;;;5042924;27;88020;-50
2024/03/31 09:45:18;;;;;;;;;;;17.40;75.30;;;;;;5038885;27;87175;-49
2024/03/31 09:47:50;;;;;;;;;;;17.40;74.80;;;;;;5044714;27;87283;-49
2024/03/31 09:50:16;;;;;;;;;;;17.40;74.70;;;;;;5040329;28;87750;-49
2024/03/31 09:52:42;;;;;;;;;;;17.40;74.70;;;;;;5042426;28;87588;-49
2024/03/31 09:55:11;;;;;;;;;;;17.40;74.80;;;;;;5043540;27;86893;-49
2024/03/31 09:57:40;;;;;;;;;;;17.40;74.80;;;;;;5043579;28;87000;-49
2024/03/31 10:00:08;;;;;;;;;;;17.40;74.90;;;;;;5043851;28;86913;-48
2024/03/31 10:02:33;;;;;;;;;;;17.40;74.90;;;;;;5042913;27;89472;-49
2024/03/31 10:05:02;;;;;;;;;;;17.50;74.70;;;;;;5044242;27;86959;-49
2024/03/31 10:07:28;;;;;;;;;;;17.50;74.80;;;;;;5043947;27;87203;-49
2024/03/31 10:09:54;;;;;;;;;;;17.50;74.80;;;;;;5042043;28;87408;-50
2024/03/31 10:12:21;;;;;;;;;;;17.50;74.70;;;;;;5044749;27;87139;-50
2024/03/31 10:14:47;;;;;;;;;;;17.50;74.90;;;;;;5041472;28;87612;-49
2024/03/31 10:17:13;;;;;;;;;;;17.50;74.80;;;;;;5043914;27;87202;-50
2024/03/31 10:19:38;;;;;;;;;;;17.50;74.80;;;;;;5044352;27;87798;-48
2024/03/31 10:22:06;;;;;;;;;;;17.50;74.70;;;;;;5043975;27;87597;-49
2024/03/31 10:24:33;;;;;;;;;;;17.50;74.60;;;;;;5042110;28;87608;-50
2024/03/31 10:26:58;;;;;;;;;;;17.60;74.60;;;;;;5045921;27;88260;-49
2024/03/31 10:29:25;;;;;;;;;;;17.60;74.70;;;;;;5046459;27;87971;-49
2024/03/31 10:31:50;;;;;;;;;;;17.50;74.30;;;;;;5045529;28;87001;-49
2024/03/31 10:34:16;;;;;;;;;;;17.60;74.60;;;;;;5049667;27;88081;-51
2024/03/31 10:36:42;;;;;;;;;;;17.60;74.50;;;;;;5046653;27;87061;-49
2024/03/31 10:39:09;;;;;;;;;;;17.60;74.20;;;;;;5045897;27;86989;-49
2024/03/31 10:41:35;;;;;;;;;;;17.60;74.20;;;;;;5046507;27;88742;-49
2024/03/31 10:44:00;;;;;;;;;;;17.60;74.10;;;;;;5046565;27;86938;-49
2024/03/31 10:46:26;;;;;;;;;;;17.60;74.20;;;;;;5045588;27;87620;-49
2024/03/31 10:48:56;;;;;;;;;;;17.60;74.20;;;;;;5045935;27;88015;-49
2024/03/31 10:51:22;;;;;;;;;;;17.60;74.20;;;;;;5045338;28;87994;-50
2024/03/31 10:53:48;;;;;;;;;;;17.60;74.30;;;;;;5041712;27;87618;-50
2024/03/31 10:56:13;;;;;;;;;;;17.70;74.20;;;;;;5047882;27;88597;-50
2024/03/31 10:58:39;;;;;;;;;;;17.70;74.20;;;;;;5046039;27;87013;-50
2024/03/31 11:01:04;;;;;;;;;;;17.60;74.30;;;;;;5045625;27;87992;-49
2024/03/31 11:03:30;;;;;;;;;;;17.70;74.30;;;;;;5045330;28;87016;-48
2024/03/31 11:05:57;;;;;;;;;;;17.70;74.40;;;;;;5046924;27;86915;-49
2024/03/31 11:08:24;;;;;;;;;;;17.70;74.90;;;;;;5043176;27;86790;-49
2024/03/31 11:10:49;;;;;;;;;;;17.70;74.10;;;;;;5044344;28;87041;-49
2024/03/31 11:13:15;;;;;;;;;;;17.80;74.30;;;;;;5039977;27;87829;-50
2024/03/31 11:15:41;;;;;;;;;;;17.70;74.10;;;;;;5042918;28;88381;-49
2024/03/31 11:18:07;;;;;;;;;;;17.80;74.10;;;;;;5045270;27;87088;-49
2024/03/31 11:20:42;;;;;;;;;;;17.80;74.20;;;;;;5043634;27;87993;-50
2024/03/31 11:23:12;;;;;;;;;;;17.80;74.00;;;;;;5043919;27;87092;-50
2024/03/31 11:25:41;;;;;;;;;;;17.80;74.10;;;;;;5045133;27;88077;-49
2024/03/31 11:28:08;;;;;;;;;;;17.90;74.20;;;;;;5042079;27;87672;-50
2024/03/31 11:30:34;;;;;;;;;;;17.90;74.00;;;;;;5045251;27;87012;-48
2024/03/31 11:33:01;;;;;;;;;;;17.90;73.70;;;;;;5046158;28;86229;-49
2024/03/31 11:35:27;;;;;;;;;;;17.90;73.70;;;;;;5039849;27;87327;-50
2024/03/31 11:37:53;;;;;;;;;;;17.90;73.60;;;;;;5039123;28;87146;-50
2024/03/31 11:40:19;;;;;;;;;;;18.00;73.50;;;;;;5046498;27;87757;-49
2024/03/31 11:42:44;;;;;;;;;;;17.90;73.70;;;;;;5043862;27;87058;-50
2024/03/31 11:45:11;;;;;;;;;;;17.90;73.80;;;;;;5046064;28;87081;-49
2024/03/31 11:47:37;;;;;;;;;;;18.00;73.60;;;;;;5045078;27;87636;-48
2024/03/31 11:50:03;;;;;;;;;;;18.00;73.60;;;;;;5045146;27;87763;-50
2024/03/31 11:52:31;;;;;;;;;;;18.00;73.60;;;;;;5044531;27;87120;-48
2024/03/31 11:54:57;;;;;;;;;;;18.00;73.70;;;;;;5044260;27;87399;-50
2024/03/31 11:57:22;;;;;;;;;;;18.00;73.70;;;;;;5043738;27;86311;-49
2024/03/31 11:59:54;;;;;;;;;;;18.00;73.70;;;;;;5042636;27;87012;-50
2024/03/31 12:02:20;;;;;;;;;;;18.00;73.70;;;;;;5048452;27;87669;-49
2024/03/31 12:04:49;;;;;;;;;;;18.00;73.50;;;;;;5044864;28;88048;-50
2024/03/31 12:07:15;;;;;;;;;;;18.10;73.60;;;;;;5045189;28;87482;-50
2024/03/31 12:09:40;;;;;;;;;;;18.10;73.50;;;;;;5043068;27;87002;-49
2024/03/31 12:12:06;;;;;;;;;;;18.10;73.50;;;;;;5045598;27;86905;-49
2024/03/31 12:14:32;;;;;;;;;;;18.10;73.40;;;;;;5044581;27;87646;-51
2024/03/31 12:16:58;;;;;;;;;;;18.20;73.40;;;;;;5044028;27;87006;-50
2024/03/31 12:19:23;;;;;;;;;;;18.10;73.30;;;;;;5039968;28;87418;-49
2024/03/31 12:21:49;;;;;;;;;;;18.10;73.30;;;;;;5048246;27;87204;-51
2024/03/31 12:24:15;;;;;;;;;;;18.10;73.50;;;;;;5044795;27;87116;-49
2024/03/31 12:26:41;;;;;;;;;;;18.10;73.20;;;;;;5043650;28;87696;-50
2024/03/31 12:29:07;;;;;;;;;;;18.20;73.20;;;;;;5040136;28;88787;-49
2024/03/31 12:31:33;;;;;;;;;;;18.20;73.20;;;;;;5044209;27;88980;-49
2024/03/31 12:33:59;;;;;;;;;;;18.20;73.10;;;;;;5044726;27;87440;-48
2024/03/31 12:36:25;;;;;;;;;;;18.20;73.10;;;;;;5045536;27;87213;-49
2024/03/31 12:38:51;;;;;;;;;;;18.20;73.30;;;;;;5044192;27;87015;-49
2024/03/31 12:41:17;;;;;;;;;;;18.20;73.10;;;;;;5042432;27;88343;-51
2024/03/31 12:43:43;;;;;;;;;;;18.30;73.30;;;;;;5046864;28;87625;-48
2024/03/31 12:46:12;;;;;;;;;;;18.30;73.20;;;;;;5042740;27;87993;-50
2024/03/31 12:48:37;;;;;;;;;;;18.30;73.00;;;;;;5042520;28;86996;-49
2024/03/31 12:51:03;;;;;;;;;;;18.30;73.10;;;;;;5042462;28;86856;-49
2024/03/31 12:53:29;;;;;;;;;;;18.30;73.10;;;;;;5039847;28;89691;-48
2024/03/31 12:55:55;;;;;;;;;;;18.30;73.20;;;;;;5043620;27;87140;-49
2024/03/31 12:58:20;;;;;;;;;;;18.30;73.10;;;;;;5043159;28;86966;-50
2024/03/31 13:00:48;;;;;;;;;;;18.40;62.80;;;;;;5041956;28;87642;-44
2024/03/31 13:03:16;;;;;;;;;;;18.90;54.10;;;;;;5041326;27;87157;-51
2024/03/31 13:05:43;;;;;;;;;;;19.50;53.00;;;;;;5046434;27;88129;-55
2024/03/31 13:08:12;;;;;;;;;;;19.40;51.90;;;;;;5044587;27;87164;-48
2024/03/31 13:10:39;;;;;;;;;;;19.30;52.40;;;;;;5040472;27;87972;-44
2024/03/31 13:13:05;;;;;;;;;;;19.20;53.10;;;;;;5043447;27;87637;-57
2024/03/31 13:15:30;;;;;;;;;;;19.30;53.50;;;;;;5044640;27;87041;-52
2024/03/31 13:17:56;;;;;;;;;;;19.20;52.90;;;;;;5043360;27;87874;-49
2024/03/31 13:20:22;;;;;;;;;;;19.20;52.30;;;;;;5043780;27;87583;-52
2024/03/31 13:22:48;;;;;;;;;;;19.20;52.70;;;;;;5044398;28;86998;-51
2024/03/31 13:25:13;;;;;;;;;;;19.10;56.00;;;;;;5041920;27;87818;-49
2024/03/31 13:27:39;;;;;;;;;;;19.00;57.60;;;;;;5044291;28;87389;-54
2024/03/31 13:30:05;;;;;;;;;;;19.00;57.30;;;;;;5043894;28;86975;-50
2024/03/31 13:32:31;;;;;;;;;;;19.10;54.70;;;;;;5040423;27;88213;-48
2024/03/31 13:34:56;;;;;;;;;;;19.30;53.90;;;;;;5044259;27;86616;-47
2024/03/31 13:37:22;;;;;;;;;;;19.40;53.50;;;;;;5044006;27;87282;-54
2024/03/31 13:39:47;;;;;;;;;;;19.40;52.90;;;;;;5039959;27;87660;-51
2024/03/31 13:42:13;;;;;;;;;;;19.40;51.80;;;;;;5039026;28;88197;-49
2024/03/31 13:44:38;;;;;;;;;;;19.40;52.60;;;;;;5043157;27;88004;-49
2024/03/31 13:47:04;;;;;;;;;;;19.40;54.00;;;;;;5042416;28;87463;-48
2024/03/31 13:49:30;;;;;;;;;;;19.30;55.70;;;;;;5042602;27;87445;-48
2024/03/31 13:51:55;;;;;;;;;;;19.20;57.20;;;;;;5044207;28;88087;-51
2024/03/31 13:54:21;;;;;;;;;;;19.20;54.20;;;;;;5044300;27;87038;-51
2024/03/31 13:56:46;;;;;;;;;;;19.50;52.40;;;;;;5043221;27;87707;-50
2024/03/31 13:59:12;;;;;;;;;;;19.60;53.10;;;;;;5047848;28;86280;-50
2024/03/31 14:01:37;;;;;;;;;;;19.50;54.80;;;;;;5043529;28;87001;-52
2024/03/31 14:04:03;;;;;;;;;;;19.40;56.40;;;;;;5047604;28;87008;-50
2024/03/31 14:06:29;;;;;;;;;;;19.40;54.40;;;;;;5046818;27;88598;-48
2024/03/31 14:08:54;;;;;;;;;;;19.40;56.70;;;;;;5047974;28;87097;-49